Llano, TX

3:03 PM CDT on September 17, 2014 (GMT -0500)
Fredericksburg | Change Station
CLOSE
Current Station
Airport
Location: Fredericksburg,
Elevation: 1696 ft
Nearby Weather Stations

Elev 1696 ft 30.24 °N, 98.91 °W | Updated 8 minutes ago

Partly Cloudy
Partly Cloudy
82 °F
Feels Like 86 °F
N
5
Wind Variable Wind from SE

Today
High -- | Low -- °F
--% Chance of Precip.
Yesterday
High -- | Low -- °F
Precip. -- in
7:19 AM 7:37 PM
Waning Crescent, 33% visible
Pressure 29.94 in
Visibility 10.0 miles
Clouds Clear
Heat Index 86 °F
Dew Point 70 °F
Humidity 66%
Rainfall 0.02 in
Snow Depth Not available.
UV 9 out of 12
Pollen 8.20 out of 12
Air Quality Not available.
Flu Activity Not available.
METAR KT82 171955Z AUTO 14004KT 10SM CLR 28/21 A2994 RMK AO2 T02790211

More Conditions Fewer Conditions

Pressure 29.94 in
Visibility 10.0 miles
Clouds Clear
Heat Index 86 °F
Dew Point 70 °F
Humidity 66%
Rainfall 0.02 in
Snow Depth Not available.
UV 9 out of 12
Pollen 8.20 out of 12
Air Quality Not available.
Flu Activity Not available.
METAR KT82 171955Z AUTO 14004KT 10SM CLR 28/21 A2994 RMK AO2 T02790211

More Conditions Fewer Conditions

Nowcast | as of 3:00 PM CDT on September 17, 2014

Through 5 PM...isolated showers will move toward the north. These showers will produce moderate rain with rainfall totals up to half an inch. Some of these showers will develop into thunderstorms and produce occasional lightning.

×

10-Day Weather Forecast

Almanac

Astronomy

Sep. 17, 2014 Rise Set
Actual Time 7:19 AM CDT 7:37 PM CDT
Civil Twilight 6:55 AM CDT 8:01 PM CDT
Nautical Twilight 6:27 AM CDT 8:29 PM CDT
Astronomical Twilight 5:58 AM CDT 8:57 PM CDT
Moon 1:38 AM CDT 3:31 PM CDT
Length of Visible Light 13h 05m
Length of Day
12h 17m
Tomorrow will be 1m 51s shorter.
Waning Crescent, 33% of the Moon is Illuminated
Today
Waning Crescent
Sep 24
New
Oct 1
First Quarter
Oct 8
Full
Oct 15
Last Quarter

Today's Extremes

State Highs State Lows

Community

WunderPhotos

Upload Photos

1,754,154 photos uploaded!

Nearby

Snow Depth

Station Depth Elevation
No new snow has been reported.

Earthquake Activity

City Distance Mag. Time & Date
No recent earthquake activity has been reported nearby.
Minimum magnitude displayed is 2.5.

Coastal Water Temperatures

Place Temperature
No Stations Reporting

Nearby Weather Stations